Time;durP1;ratioP1;P1;durP2;ratioP2;P2;SDS_P1;SDS_P2;PMS_P1;PMS_P2;Temp;Humidity;BMP_temperature;BMP_pressure;BME280_temperature;BME280_humidity;BME280_pressure;Samples;Min_cycle;Max_cycle;Signal;HPM_P1;HPM_P2
2023/04/13 00:00:22;;;;;;;;;1.33;1.33;;;;;10.72;57.14;99757.16;2097315;28;46918;-62
2023/04/13 00:01:22;;;;;;;;;1.50;1.50;;;;;10.74;57.20;99760.59;2096644;28;45827;-63
2023/04/13 00:02:23;;;;;;;;;1.33;1.33;;;;;10.75;56.99;99777.38;2096962;28;46405;-62
2023/04/13 00:03:24;;;;;;;;;3.67;3.00;;;;;10.73;57.17;99745.59;2097508;28;45364;-61
2023/04/13 00:04:25;;;;;;;;;1.00;1.00;;;;;10.74;57.18;99760.59;2098943;28;46958;-62
2023/04/13 00:05:27;;;;;;;;;1.00;0.00;;;;;10.74;57.27;99765.03;2101539;28;46251;-61
2023/04/13 00:06:28;;;;;;;;;2.00;2.00;;;;;10.71;57.21;99752.75;2097110;28;46682;-62
2023/04/13 00:07:28;;;;;;;;;1.75;1.75;;;;;10.71;57.16;99752.75;2097053;28;47280;-62
2023/04/13 00:08:29;;;;;;;;;1.00;1.00;;;;;10.71;57.16;99770.47;2096871;28;46275;-62
2023/04/13 00:09:30;;;;;;;;;2.25;2.25;;;;;10.69;57.05;99761.72;2096870;28;46304;-61
2023/04/13 00:10:35;;;;;;;;;5.67;2.00;;;;;10.70;57.23;99758.13;2097279;28;46936;-63
2023/04/13 00:11:37;;;;;;;;;2.50;0.00;;;;;10.69;57.41;99759.06;2096339;28;46235;-61
2023/04/13 00:12:47;;;;;;;;;3.00;1.00;;;;;10.70;57.30;99777.56;2093854;28;47101;-62
2023/04/13 00:13:47;;;;;;;;;1.25;1.25;;;;;10.70;57.43;99774.91;2096739;28;46753;-62
2023/04/13 00:14:49;;;;;;;;;1.67;1.33;;;;;10.71;57.30;99778.44;2096970;28;46574;-60
2023/04/13 00:15:50;;;;;;;;;3.00;2.00;;;;;10.71;57.36;99774.00;2096654;28;45226;-61
2023/04/13 00:16:50;;;;;;;;;2.33;2.00;;;;;10.71;57.28;99766.03;2096209;28;46873;-61
2023/04/13 00:17:52;;;;;;;;;2.00;2.00;;;;;10.71;57.51;99774.00;2088738;28;46716;-63
2023/04/13 00:18:52;;;;;;;;;1.50;1.00;;;;;10.72;57.14;99766.91;2096272;28;46286;-61
2023/04/13 00:19:56;;;;;;;;;1.67;1.00;;;;;10.73;57.50;99772.13;2087948;28;46738;-62
2023/04/13 00:20:58;;;;;;;;;1.75;0.75;;;;;10.74;57.11;99773.00;2089663;28;46149;-61
2023/04/13 00:22:00;;;;;;;;;1.00;1.00;;;;;10.74;57.63;99767.69;2098599;28;46663;-62
2023/04/13 00:23:00;;;;;;;;;2.00;1.50;;;;;10.74;57.36;99775.66;2097082;28;46905;-61
2023/04/13 00:24:01;;;;;;;;;6.00;2.00;;;;;10.74;57.12;99776.53;2103104;28;46671;-62
2023/04/13 00:25:01;;;;;;;;;3.67;1.00;;;;;10.73;57.45;99774.78;2101070;28;46838;-62
2023/04/13 00:26:01;;;;;;;;;2.67;2.00;;;;;10.74;57.06;99770.34;2097559;28;44943;-61
2023/04/13 00:27:03;;;;;;;;;1.00;1.00;;;;;10.73;57.55;99774.78;2096663;28;46048;-62
2023/04/13 00:28:05;;;;;;;;;3.00;1.50;;;;;10.72;57.70;99770.41;2095353;28;46019;-61
2023/04/13 00:29:05;;;;;;;;;2.25;1.25;;;;;10.72;57.73;99773.06;2087798;28;46689;-61
2023/04/13 00:30:14;;;;;;;;;3.00;2.00;;;;;10.71;57.45;99766.03;2087947;28;46354;-63
2023/04/13 00:31:15;;;;;;;;;1.00;1.00;;;;;10.72;57.70;99769.53;2087589;28;46492;-61
2023/04/13 00:32:15;;;;;;;;;0.33;0.33;;;;;10.72;57.47;99766.91;2079719;28;46509;-62
2023/04/13 00:33:16;;;;;;;;;2.33;1.00;;;;;10.72;57.72;99766.91;2079496;28;45138;-61
2023/04/13 00:34:16;;;;;;;;;3.00;3.00;;;;;10.72;57.65;99765.09;2088989;28;46001;-63
2023/04/13 00:35:18;;;;;;;;;1.67;1.33;;;;;10.72;57.43;99767.75;2089028;28;46336;-59
2023/04/13 00:36:20;;;;;;;;;4.50;2.50;;;;;10.73;57.65;99755.34;2088563;28;45686;-61
2023/04/13 00:37:20;;;;;;;;;1.00;1.00;;;;;10.73;57.91;99742.94;2092041;28;46401;-60
2023/04/13 00:38:22;;;;;;;;;2.00;1.33;;;;;10.76;57.62;99755.22;2096609;28;46342;-60
2023/04/13 00:39:23;;;;;;;;;2.00;2.00;;;;;10.77;57.45;99759.63;2095125;28;46983;-60
2023/04/13 00:40:24;;;;;;;;;2.00;2.00;;;;;10.74;57.87;99768.56;2088580;28;46302;-61
2023/04/13 00:41:25;;;;;;;;;3.67;2.00;;;;;10.73;57.58;99772.13;2093338;28;46291;-60
2023/04/13 00:42:26;;;;;;;;;1.50;1.50;;;;;10.70;57.36;99772.25;2097006;28;46446;-61
2023/04/13 00:43:26;;;;;;;;;1.67;1.67;;;;;10.68;57.70;99768.81;2088055;28;46303;-61
2023/04/13 00:44:27;;;;;;;;;1.00;1.00;;;;;10.69;57.65;99767.00;2087826;28;46486;-61
2023/04/13 00:45:28;;;;;;;;;2.33;2.33;;;;;10.68;57.88;99768.81;2096672;28;46630;-60
2023/04/13 00:46:30;;;;;;;;;1.00;0.75;;;;;10.67;58.01;99766.19;2087547;28;46474;-60
2023/04/13 00:47:32;;;;;;;;;1.00;1.00;;;;;10.63;57.89;99773.41;2088231;28;47142;-59
2023/04/13 00:48:33;;;;;;;;;1.25;1.00;;;;;10.63;58.02;99775.19;2097214;28;46158;-62
2023/04/13 00:49:35;;;;;;;;;3.50;1.75;;;;;10.62;58.32;99774.31;2096343;28;46880;-60
2023/04/13 00:50:35;;;;;;;;;3.00;1.75;;;;;10.61;58.17;99772.59;2097017;28;46670;-60
2023/04/13 00:51:37;;;;;;;;;1.33;1.33;;;;;10.61;58.42;99775.25;2088004;28;46513;-61
2023/04/13 00:52:39;;;;;;;;;2.50;2.00;;;;;10.61;58.49;99757.53;2087927;28;46272;-60
2023/04/13 00:53:41;;;;;;;;;3.75;2.00;;;;;10.61;58.57;99760.19;2096564;28;46250;-61
2023/04/13 00:54:42;;;;;;;;;2.00;2.00;;;;;10.63;58.23;99759.25;2089318;28;45630;-61
2023/04/13 00:55:42;;;;;;;;;1.33;1.00;;;;;10.63;58.39;99769.88;2088291;28;46994;-63
2023/04/13 00:56:43;;;;;;;;;4.33;2.00;;;;;10.63;58.37;99761.91;2089259;28;45612;-61
2023/04/13 00:57:43;;;;;;;;;4.00;1.00;;;;;10.63;58.52;99770.75;2088605;28;45144;-62
2023/04/13 00:58:44;;;;;;;;;5.00;2.67;;;;;10.63;58.14;99772.53;2088540;28;46727;-63
2023/04/13 00:59:48;;;;;;;;;2.67;2.67;;;;;10.63;58.29;99769.88;2088278;28;46818;-63
2023/04/13 01:00:48;;;;;;;;;3.00;3.00;;;;;10.62;58.39;99774.31;2089375;28;45819;-61
2023/04/13 01:01:55;;;;;;;;;2.00;2.00;;;;;10.61;58.50;99772.59;2088145;28;46379;-61
2023/04/13 01:02:55;;;;;;;;;2.25;2.00;;;;;10.61;58.37;99772.59;2070672;28;46256;-62
2023/04/13 01:03:55;;;;;;;;;2.00;2.00;;;;;10.59;58.46;99770.00;2073976;28;45680;-62
2023/04/13 01:04:56;;;;;;;;;5.00;4.67;;;;;10.60;58.43;99781.47;2078725;28;47131;-63
2023/04/13 01:06:23;;;;;;;;;3.00;2.00;;;;;10.63;58.46;99767.22;2079048;28;46135;-61
2023/04/13 01:07:49;;;;;;;;;2.25;2.25;;;;;10.60;58.25;99766.41;2079401;28;46298;-62
2023/04/13 01:09:00;;;;;;;;;4.00;4.00;;;;;10.59;58.44;99763.84;2078843;28;46998;-61
2023/04/13 01:10:09;;;;;;;;;5.25;1.75;;;;;10.58;58.57;99772.72;2079051;28;46299;-62
2023/04/13 01:11:17;;;;;;;;;1.50;1.50;;;;;10.60;58.20;99776.16;2079012;28;45917;-61
2023/04/13 01:12:30;;;;;;;;;2.00;2.00;;;;;10.58;58.66;99772.72;2078682;28;46364;-63
2023/04/13 01:13:45;;;;;;;;;3.00;2.00;;;;;10.56;58.51;99769.25;2079062;28;46348;-62
2023/04/13 01:15:01;;;;;;;;;1.50;1.00;;;;;10.56;58.54;99786.03;2078503;28;46591;-61
2023/04/13 01:16:09;;;;;;;;;3.75;2.75;;;;;10.55;58.91;99773.69;2078975;28;46927;-61
2023/04/13 01:17:16;;;;;;;;;5.50;3.75;;;;;10.54;58.59;99779.03;2078794;28;46121;-60
2023/04/13 01:18:17;;;;;;;;;2.00;1.75;;;;;10.54;58.89;99768.41;2078729;28;46782;-62
2023/04/13 01:19:30;;;;;;;;;3.50;2.00;;;;;10.54;59.07;99771.06;2078568;28;46352;-62
2023/04/13 01:20:31;;;;;;;;;2.50;2.50;;;;;10.56;58.82;99787.81;2078824;28;46323;-61
2023/04/13 01:21:34;;;;;;;;;2.00;2.00;;;;;10.55;58.69;99784.31;2078600;28;46367;-62
2023/04/13 01:22:38;;;;;;;;;2.75;2.00;;;;;10.53;58.77;99779.97;2078861;28;46266;-61
2023/04/13 01:23:40;;;;;;;;;1.00;1.00;;;;;10.52;58.76;99794.16;2071007;28;46421;-61
2023/04/13 01:24:56;;;;;;;;;5.75;3.75;;;;;10.53;58.59;99782.59;2078723;28;46572;-61
2023/04/13 01:26:05;;;;;;;;;4.25;2.25;;;;;10.53;58.68;99774.66;2069488;28;45938;-61
2023/04/13 01:27:13;;;;;;;;;5.75;2.25;;;;;10.53;58.95;99782.59;2072041;28;46361;-61
2023/04/13 01:28:15;;;;;;;;;3.00;2.00;;;;;10.54;58.82;99779.94;2068663;28;46287;-61
2023/04/13 01:29:17;;;;;;;;;5.00;4.00;;;;;10.55;58.79;99788.75;2062366;28;45780;-61
2023/04/13 01:30:23;;;;;;;;;3.00;1.75;;;;;10.55;58.90;99778.13;2070761;28;46737;-62
2023/04/13 01:31:23;;;;;;;;;3.00;2.00;;;;;10.56;58.64;99774.56;2055481;28;46195;-61
2023/04/13 01:32:24;;;;;;;;;4.00;2.00;;;;;10.57;58.93;99773.63;2055968;28;46308;-62
2023/04/13 01:33:25;;;;;;;;;5.67;3.00;;;;;10.56;58.75;99780.72;2065759;28;46301;-61
2023/04/13 01:34:25;;;;;;;;;2.33;2.33;;;;;10.56;58.79;99796.66;2075022;28;46581;-60
2023/04/13 01:35:26;;;;;;;;;4.00;2.00;;;;;10.56;59.10;99780.72;2078322;28;45518;-61
2023/04/13 01:36:26;;;;;;;;;2.00;2.00;;;;;10.56;59.15;99786.03;2078945;28;46811;-61
2023/04/13 01:37:28;;;;;;;;;2.67;2.00;;;;;10.55;59.01;99783.44;2091234;28;46592;-61
2023/04/13 01:38:28;;;;;;;;;5.00;2.00;;;;;10.55;59.00;99784.31;2082011;28;46450;-61
2023/04/13 01:39:31;;;;;;;;;2.33;2.33;;;;;10.55;58.60;99789.63;2078969;28;46175;-61
2023/04/13 01:40:35;;;;;;;;;3.25;2.00;;;;;10.56;58.89;99795.78;2087093;28;47061;-62
2023/04/13 01:41:36;;;;;;;;;3.00;2.00;;;;;10.56;58.64;99775.44;2086761;28;46456;-61
2023/04/13 01:42:41;;;;;;;;;5.00;3.00;;;;;10.54;58.71;99774.63;2087204;28;46504;-62
2023/04/13 01:43:42;;;;;;;;;3.00;3.00;;;;;10.53;58.75;99783.47;2078147;28;46368;-60
2023/04/13 01:44:44;;;;;;;;;5.00;3.00;;;;;10.52;58.57;99787.03;2070892;28;45639;-61
2023/04/13 01:45:53;;;;;;;;;3.25;2.00;;;;;10.52;58.54;99794.16;2078708;28;46730;-61
2023/04/13 01:47:12;;;;;;;;;4.75;2.50;;;;;10.52;58.75;99780.88;2086998;28;45183;-61
2023/04/13 01:48:32;;;;;;;;;5.00;3.25;;;;;10.50;58.86;99791.56;2087036;28;46465;-62
2023/04/13 01:49:32;;;;;;;;;3.25;2.25;;;;;10.49;58.70;99784.50;2085719;28;47015;-62
2023/04/13 01:50:40;;;;;;;;;2.00;2.00;;;;;10.49;58.91;99788.97;2078896;28;46719;-62
2023/04/13 01:51:44;;;;;;;;;3.00;2.00;;;;;10.48;58.91;99795.19;2078549;28;46440;-62
2023/04/13 01:52:44;;;;;;;;;2.00;2.00;;;;;10.47;59.05;99788.16;2083177;28;46994;-62
2023/04/13 01:53:58;;;;;;;;;3.00;2.75;;;;;10.48;58.78;99797.84;2087013;28;46791;-60
2023/04/13 01:54:59;;;;;;;;;3.00;2.00;;;;;10.47;58.75;99790.81;2087804;28;46865;-62
2023/04/13 01:56:03;;;;;;;;;4.67;2.67;;;;;10.45;58.82;99798.81;2096295;28;46432;-62
2023/04/13 01:57:04;;;;;;;;;3.25;3.00;;;;;10.45;58.76;99797.97;2087546;28;46625;-61
2023/04/13 01:58:06;;;;;;;;;5.67;4.00;;;;;10.45;58.84;99800.59;2087398;28;46380;-61
2023/04/13 01:59:07;;;;;;;;;3.00;3.00;;;;;10.46;59.00;99797.91;2096336;28;46632;-60
2023/04/13 02:00:11;;;;;;;;;3.50;1.25;;;;;10.45;58.78;99808.56;2096497;28;46396;-62
2023/04/13 02:01:11;;;;;;;;;2.25;2.00;;;;;10.45;58.72;99804.13;2095937;28;46402;-61
2023/04/13 02:02:15;;;;;;;;;2.67;2.67;;;;;10.45;58.66;99797.97;2096261;28;46651;-60
2023/04/13 02:03:15;;;;;;;;;1.50;1.50;;;;;10.45;58.84;99796.16;2096467;28;46605;-61
2023/04/13 02:04:16;;;;;;;;;3.00;3.00;;;;;10.46;58.85;99805.84;2087470;28;46094;-62
2023/04/13 02:05:16;;;;;;;;;3.00;3.00;;;;;10.47;58.79;99796.97;2088575;28;45822;-61
2023/04/13 02:06:16;;;;;;;;;3.33;1.67;;;;;10.47;58.80;99796.97;2096338;28;47184;-61
2023/04/13 02:07:17;;;;;;;;;4.33;3.00;;;;;10.48;58.79;99803.16;2096287;28;46156;-61
2023/04/13 02:08:19;;;;;;;;;5.75;3.00;;;;;10.48;58.87;99800.50;2096220;28;45686;-61
2023/04/13 02:09:19;;;;;;;;;3.00;3.00;;;;;10.45;58.57;99806.78;2096117;28;46671;-63
2023/04/13 02:10:21;;;;;;;;;4.00;2.00;;;;;10.44;58.65;99802.41;2096362;28;45456;-62
2023/04/13 02:11:21;;;;;;;;;2.25;2.25;;;;;10.43;58.61;99792.72;2096340;28;46708;-60
2023/04/13 02:12:21;;;;;;;;;3.33;3.33;;;;;10.44;58.99;99797.09;2096165;28;46398;-62
2023/04/13 02:13:23;;;;;;;;;3.00;3.00;;;;;10.44;58.92;99785.63;2089562;28;46588;-62
2023/04/13 02:14:24;;;;;;;;;2.50;1.75;;;;;10.45;58.74;99803.25;2096855;28;46616;-62
2023/04/13 02:15:25;;;;;;;;;3.00;3.00;;;;;10.44;58.59;99797.09;2096457;28;46778;-62
2023/04/13 02:16:27;;;;;;;;;3.50;3.50;;;;;10.44;58.47;99798.88;2096260;28;46458;-62
2023/04/13 02:17:28;;;;;;;;;3.75;3.75;;;;;10.42;58.59;99801.59;2088189;28;46889;-61
2023/04/13 02:18:29;;;;;;;;;1.75;1.75;;;;;10.42;58.68;99801.59;2091276;28;46651;-61
2023/04/13 02:19:30;;;;;;;;;4.50;1.75;;;;;10.40;58.64;99800.75;2095628;28;46910;-62
2023/04/13 02:20:41;;;;;;;;;2.50;1.75;;;;;10.40;58.69;99806.06;2096640;28;45275;-62
2023/04/13 02:21:41;;;;;;;;;2.25;2.00;;;;;10.40;58.39;99802.53;2100528;28;46476;-62
2023/04/13 02:22:42;;;;;;;;;4.00;3.00;;;;;10.40;58.46;99808.72;2096169;28;46348;-61
2023/04/13 02:23:43;;;;;;;;;3.75;2.75;;;;;10.40;58.62;99808.72;2090806;28;46275;-61
2023/04/13 02:24:43;;;;;;;;;6.33;3.67;;;;;10.40;58.56;99818.44;2086760;28;46289;-61
2023/04/13 02:25:45;;;;;;;;;4.00;3.33;;;;;10.40;58.58;99815.81;2078316;28;46798;-62
2023/04/13 02:26:46;;;;;;;;;4.50;2.75;;;;;10.36;58.84;99817.69;2095942;28;46504;-62
2023/04/13 02:27:46;;;;;;;;;3.00;3.00;;;;;10.38;58.74;99825.59;2089454;28;47270;-62
2023/04/13 02:28:48;;;;;;;;;2.33;2.00;;;;;10.39;58.82;99822.03;2086907;28;46622;-61
2023/04/13 02:29:50;;;;;;;;;4.00;2.00;;;;;10.41;58.63;99830.78;2087583;28;46162;-62
2023/04/13 02:30:51;;;;;;;;;3.00;2.25;;;;;10.42;58.49;99824.59;2096528;28;46762;-62
2023/04/13 02:31:51;;;;;;;;;1.25;1.25;;;;;10.43;58.96;99821.03;2089525;28;46787;-60
2023/04/13 02:32:52;;;;;;;;;5.67;4.00;;;;;10.44;58.57;99828.06;2087981;28;46331;-61
2023/04/13 02:33:52;;;;;;;;;2.33;2.33;;;;;10.44;58.67;99822.75;2087999;28;46662;-62
2023/04/13 02:34:53;;;;;;;;;2.00;2.00;;;;;10.45;58.84;99828.00;2087865;28;46674;-62
2023/04/13 02:35:53;;;;;;;;;3.67;2.67;;;;;10.45;58.64;99832.44;2087874;28;46843;-61
2023/04/13 02:36:54;;;;;;;;;1.67;1.67;;;;;10.47;58.81;99833.25;2096019;28;46487;-63
2023/04/13 02:37:54;;;;;;;;;3.25;2.00;;;;;10.47;58.90;99836.75;2095932;28;46878;-61
2023/04/13 02:38:55;;;;;;;;;2.67;2.00;;;;;10.46;58.72;99824.41;2096412;28;46096;-62
2023/04/13 02:39:56;;;;;;;;;3.33;2.00;;;;;10.45;58.80;99833.31;2089258;28;46698;-62
2023/04/13 02:41:00;;;;;;;;;4.00;3.00;;;;;10.44;58.68;99826.28;2087814;28;46406;-62
2023/04/13 02:42:01;;;;;;;;;4.00;4.00;;;;;10.44;58.68;99836.88;2088186;28;46776;-61
2023/04/13 02:43:03;;;;;;;;;1.75;1.75;;;;;10.44;58.68;99830.72;2088305;28;46272;-62
2023/04/13 02:44:03;;;;;;;;;2.00;1.75;;;;;10.43;58.93;99835.16;2087502;28;46414;-62
2023/04/13 02:45:06;;;;;;;;;3.00;1.67;;;;;10.43;58.76;99837.81;2088102;28;46887;-62
2023/04/13 02:46:07;;;;;;;;;3.25;2.75;;;;;10.43;58.93;99839.59;2089059;28;46553;-63
2023/04/13 02:47:08;;;;;;;;;1.50;1.50;;;;;10.42;58.92;99843.16;2096962;28;46937;-61
2023/04/13 02:48:09;;;;;;;;;1.67;1.67;;;;;10.42;59.15;99836.06;2089784;28;46348;-63
2023/04/13 02:49:09;;;;;;;;;3.75;2.50;;;;;10.42;58.97;99837.84;2088949;28;46766;-62
2023/04/13 02:50:11;;;;;;;;;2.00;2.00;;;;;10.44;59.00;99836.00;2097105;28;46406;-63
2023/04/13 02:51:11;;;;;;;;;3.75;2.25;;;;;10.44;59.09;99833.38;2097638;28;46635;-62
2023/04/13 02:52:12;;;;;;;;;5.00;3.00;;;;;10.44;59.46;99844.84;2097130;28;46320;-63
2023/04/13 02:53:14;;;;;;;;;3.67;2.00;;;;;10.45;59.25;99843.91;2097815;28;47502;-62
2023/04/13 02:54:14;;;;;;;;;3.50;3.00;;;;;10.46;59.32;99840.34;2098142;28;46962;-60
2023/04/13 02:55:15;;;;;;;;;2.33;2.00;;;;;10.47;59.15;99830.59;2097380;28;46270;-61
2023/04/13 02:56:15;;;;;;;;;2.25;1.25;;;;;10.46;59.29;99836.81;2088561;28;46626;-60
2023/04/13 02:57:17;;;;;;;;;3.00;3.00;;;;;10.45;59.18;99833.31;2088459;28;46366;-61
2023/04/13 02:58:18;;;;;;;;;3.00;3.00;;;;;10.44;59.23;99838.66;2097408;28;46369;-62
2023/04/13 02:59:20;;;;;;;;;2.00;2.00;;;;;10.42;59.41;99843.16;2097583;28;46100;-61
2023/04/13 03:00:20;;;;;;;;;3.00;2.25;;;;;10.42;59.63;99843.16;2088525;28;46549;-61
2023/04/13 03:01:23;;;;;;;;;4.67;4.00;;;;;10.41;59.44;99842.25;2080402;28;46535;-61
2023/04/13 03:02:26;;;;;;;;;3.50;1.50;;;;;10.39;59.40;99836.16;2088682;28;46437;-61
2023/04/13 03:03:29;;;;;;;;;1.50;1.50;;;;;10.37;59.29;99837.13;2097218;28;47016;-61
2023/04/13 03:04:29;;;;;;;;;1.50;1.25;;;;;10.35;59.52;99842.50;2097783;28;45613;-62
2023/04/13 03:05:30;;;;;;;;;2.75;2.75;;;;;10.35;59.50;99837.19;2098155;28;46741;-60
2023/04/13 03:06:30;;;;;;;;;4.00;3.33;;;;;10.34;59.69;99838.13;2088431;28;46326;-62
2023/04/13 03:07:32;;;;;;;;;6.67;2.33;;;;;10.32;59.51;99838.16;2095128;28;45895;-61
2023/04/13 03:08:32;;;;;;;;;4.50;2.50;;;;;10.31;59.62;99840.88;2096645;28;46853;-61
2023/04/13 03:09:33;;;;;;;;;1.67;1.33;;;;;10.29;59.34;99845.34;2093010;28;46408;-61
2023/04/13 03:10:36;;;;;;;;;0.00;0.00;;;;;10.29;59.52;99848.00;2097418;28;46340;-60
2023/04/13 03:11:36;;;;;;;;;2.25;2.25;;;;;10.27;59.36;99842.75;2096975;28;46470;-62
2023/04/13 03:12:36;;;;;;;;;2.33;2.00;;;;;10.25;59.78;99841.94;2098576;28;46459;-60
2023/04/13 03:13:37;;;;;;;;;2.33;2.33;;;;;10.23;59.53;99841.13;2094209;28;46702;-61
2023/04/13 03:14:37;;;;;;;;;5.33;3.00;;;;;10.23;59.62;99848.22;2087556;28;45936;-62
2023/04/13 03:15:39;;;;;;;;;2.00;2.00;;;;;10.23;59.67;99848.22;2096490;28;46265;-61
2023/04/13 03:16:40;;;;;;;;;3.50;2.50;;;;;10.21;59.47;99840.31;2094929;28;46550;-62
2023/04/13 03:17:42;;;;;;;;;3.00;3.00;;;;;10.22;59.68;99841.19;2088542;28;46847;-61
2023/04/13 03:18:44;;;;;;;;;6.25;2.25;;;;;10.23;59.77;99849.09;2097108;28;46825;-60
2023/04/13 03:19:48;;;;;;;;;4.50;2.75;;;;;10.22;59.40;99852.66;2088533;28;46334;-61
2023/04/13 03:20:48;;;;;;;;;2.50;2.25;;;;;10.22;59.64;99854.44;2088430;28;46847;-62
2023/04/13 03:21:49;;;;;;;;;2.00;2.00;;;;;10.21;59.51;99853.56;2101746;28;46665;-61
2023/04/13 03:22:50;;;;;;;;;2.67;1.00;;;;;10.20;59.63;99851.81;2088459;28;46885;-64
2023/04/13 03:23:51;;;;;;;;;3.50;3.50;;;;;10.20;59.45;99857.13;2090548;28;46180;-62
2023/04/13 03:24:51;;;;;;;;;3.00;2.67;;;;;10.21;59.70;99844.72;2097341;28;46217;-61
2023/04/13 03:25:51;;;;;;;;;4.00;2.00;;;;;10.21;59.58;99856.22;2097102;28;46497;-61
2023/04/13 03:26:56;;;;;;;;;1.00;1.00;;;;;10.20;59.70;99862.41;2098016;28;46604;-62
2023/04/13 03:27:57;;;;;;;;;1.75;1.75;;;;;10.20;59.42;99858.91;2097015;28;46623;-62
2023/04/13 03:28:57;;;;;;;;;3.00;3.00;;;;;10.19;59.77;99858.03;2091388;28;45294;-61
2023/04/13 03:29:57;;;;;;;;;2.00;2.00;;;;;10.19;59.61;99857.16;2092468;28;46382;-61
2023/04/13 03:30:58;;;;;;;;;4.33;4.33;;;;;10.19;59.64;99868.66;2097144;28;46389;-62
2023/04/13 03:31:58;;;;;;;;;4.00;2.67;;;;;10.21;59.61;99872.13;2096941;28;46270;-62
2023/04/13 03:32:58;;;;;;;;;3.33;3.33;;;;;10.21;59.76;99865.94;2097210;28;46323;-63
2023/04/13 03:33:59;;;;;;;;;5.67;4.00;;;;;10.22;59.70;99875.66;2097100;28;46404;-63
2023/04/13 03:34:59;;;;;;;;;5.67;3.00;;;;;10.21;59.41;99874.78;2097004;28;46643;-62
2023/04/13 03:35:59;;;;;;;;;1.00;1.00;;;;;10.20;59.84;99872.16;2097124;28;46585;-61
2023/04/13 03:37:00;;;;;;;;;6.33;3.00;;;;;10.18;59.81;99872.22;2097166;28;46862;-62
2023/04/13 03:38:00;;;;;;;;;3.00;1.67;;;;;10.19;60.09;99875.72;2087923;28;46262;-63
2023/04/13 03:39:00;;;;;;;;;1.33;1.33;;;;;10.21;59.62;99887.16;2088178;28;46682;-63
2023/04/13 03:40:01;;;;;;;;;3.33;3.00;;;;;10.21;59.80;99871.25;2097185;28;46826;-61
2023/04/13 03:41:02;;;;;;;;;4.33;2.00;;;;;10.20;59.76;99873.03;2099535;28;46605;-62
2023/04/13 03:42:02;;;;;;;;;2.00;2.00;;;;;10.18;59.85;99866.91;2100682;28;46879;-62
2023/04/13 03:43:03;;;;;;;;;4.33;3.00;;;;;10.18;59.76;99874.88;2097338;28;45796;-61
2023/04/13 03:44:04;;;;;;;;;3.00;3.00;;;;;10.19;60.04;99875.72;2088256;28;46815;-62
2023/04/13 03:45:05;;;;;;;;;3.25;1.25;;;;;10.18;60.13;99880.16;2087929;28;46389;-60
2023/04/13 03:46:06;;;;;;;;;1.00;1.00;;;;;10.20;59.96;99882.75;2097077;28;46774;-63
2023/04/13 03:47:08;;;;;;;;;4.00;4.00;;;;;10.20;60.00;99880.97;2096805;28;46365;-62
2023/04/13 03:48:09;;;;;;;;;3.00;2.25;;;;;10.21;60.01;99864.19;2097059;28;46314;-62
2023/04/13 03:49:11;;;;;;;;;3.25;3.00;;;;;10.22;59.88;99873.00;2097105;28;46715;-61
2023/04/13 03:50:12;;;;;;;;;3.25;1.25;;;;;10.22;59.98;99865.91;2090769;28;46948;-60
2023/04/13 03:51:12;;;;;;;;;4.00;2.67;;;;;10.21;60.07;99877.44;2088427;28;46360;-62
2023/04/13 03:52:13;;;;;;;;;3.00;1.67;;;;;10.22;60.19;99880.97;2096886;28;45113;-63
2023/04/13 03:53:13;;;;;;;;;2.33;2.33;;;;;10.22;59.89;99884.47;2092305;28;46360;-61
2023/04/13 03:54:13;;;;;;;;;1.00;1.00;;;;;10.23;59.96;99888.84;2096120;28;46415;-62
2023/04/13 03:55:14;;;;;;;;;2.67;2.00;;;;;10.23;59.67;99888.00;2097151;28;45785;-61
2023/04/13 03:56:14;;;;;;;;;4.33;3.67;;;;;10.20;60.19;99883.63;2087102;28;46028;-60
2023/04/13 03:57:15;;;;;;;;;5.67;4.00;;;;;10.20;59.93;99888.94;2087819;28;46578;-62
2023/04/13 03:58:16;;;;;;;;;2.50;2.50;;;;;10.19;60.05;99884.56;2097164;28;45595;-62
2023/04/13 03:59:16;;;;;;;;;2.00;2.00;;;;;10.19;60.23;99887.19;2096782;28;46846;-61
2023/04/13 04:00:17;;;;;;;;;3.33;1.33;;;;;10.21;60.05;99889.81;2097341;28;46711;-62
2023/04/13 04:01:17;;;;;;;;;3.67;3.00;;;;;10.22;60.21;99889.78;2096878;28;46204;-63
2023/04/13 04:02:18;;;;;;;;;3.00;3.00;;;;;10.22;60.01;99895.09;2087923;28;46168;-62
2023/04/13 04:03:18;;;;;;;;;1.67;1.67;;;;;10.23;60.16;99898.59;2088327;28;45557;-61
2023/04/13 04:04:18;;;;;;;;;4.00;1.67;;;;;10.22;60.11;99894.22;2098279;28;45852;-61
2023/04/13 04:05:18;;;;;;;;;5.00;4.00;;;;;10.21;60.06;99901.31;2105429;28;46489;-62
2023/04/13 04:06:19;;;;;;;;;5.67;4.33;;;;;10.19;60.23;99899.59;2099580;28;46877;-62
2023/04/13 04:07:22;;;;;;;;;3.33;2.00;;;;;10.17;60.03;99893.47;2097076;28;46623;-61
2023/04/13 04:08:22;;;;;;;;;5.25;4.50;;;;;10.16;60.10;99900.53;2088224;28;46525;-61
2023/04/13 04:09:23;;;;;;;;;2.33;1.33;;;;;10.14;60.11;99897.06;2079444;28;46432;-61
2023/04/13 04:10:23;;;;;;;;;1.75;1.00;;;;;10.12;60.40;99901.56;2088273;28;46961;-61
2023/04/13 04:11:24;;;;;;;;;3.33;1.00;;;;;10.10;60.46;99898.09;2097416;28;46521;-62
2023/04/13 04:12:25;;;;;;;;;5.67;2.33;;;;;10.11;60.29;99902.47;2086771;28;46473;-61
2023/04/13 04:13:25;;;;;;;;;4.00;2.33;;;;;10.12;60.80;99896.25;2087558;28;46640;-61
2023/04/13 04:14:25;;;;;;;;;2.00;2.00;;;;;10.11;60.17;99899.84;2096489;28;46107;-61
2023/04/13 04:15:26;;;;;;;;;6.00;3.00;;;;;10.11;60.30;99899.84;2096660;28;46752;-61
2023/04/13 04:16:26;;;;;;;;;2.33;2.00;;;;;10.12;60.35;99903.34;2088158;28;46198;-61
2023/04/13 04:17:26;;;;;;;;;4.67;2.67;;;;;10.11;60.35;99899.84;2079676;28;46981;-62
2023/04/13 04:18:29;;;;;;;;;3.00;3.00;;;;;10.10;60.27;99903.41;2088229;28;46467;-62
2023/04/13 04:19:30;;;;;;;;;1.50;1.50;;;;;10.11;60.41;99906.91;2097012;28;46855;-60
2023/04/13 04:20:30;;;;;;;;;3.00;2.00;;;;;10.11;60.35;99905.13;2092519;28;46270;-60
2023/04/13 04:21:34;;;;;;;;;6.33;3.00;;;;;10.10;60.46;99900.75;2100356;28;46571;-61
2023/04/13 04:22:35;;;;;;;;;3.00;2.00;;;;;10.11;60.39;99904.28;2088573;28;46778;-61
2023/04/13 04:23:36;;;;;;;;;2.00;2.00;;;;;10.11;60.61;99910.44;2095078;28;46265;-60
2023/04/13 04:24:37;;;;;;;;;2.75;2.75;;;;;10.12;60.52;99906.00;2105353;28;46535;-62
2023/04/13 04:25:38;;;;;;;;;2.33;2.00;;;;;10.14;60.59;99912.13;2098138;28;47117;-62
2023/04/13 04:26:39;;;;;;;;;3.00;2.75;;;;;10.13;60.33;99908.59;2097092;28;46282;-63
2023/04/13 04:27:39;;;;;;;;;2.00;1.00;;;;;10.13;60.46;99913.03;2091518;28;45935;-62
2023/04/13 04:28:39;;;;;;;;;3.00;2.00;;;;;10.12;60.46;99917.47;2093536;28;45891;-61
2023/04/13 04:29:40;;;;;;;;;5.00;3.00;;;;;10.11;60.51;99912.22;2097068;28;46247;-62
2023/04/13 04:30:40;;;;;;;;;2.00;1.00;;;;;10.10;60.65;99919.31;2097989;28;46627;-62
2023/04/13 04:31:43;;;;;;;;;4.00;4.00;;;;;10.10;60.27;99921.97;2096728;28;45647;-62
2023/04/13 04:32:43;;;;;;;;;3.50;3.00;;;;;10.12;60.56;99930.72;2097208;28;45732;-61
2023/04/13 04:33:45;;;;;;;;;2.33;2.33;;;;;10.13;60.60;99929.81;2090001;28;46049;-61
2023/04/13 04:34:47;;;;;;;;;3.00;3.00;;;;;10.15;60.48;99929.75;2091829;28;45268;-62
2023/04/13 04:35:50;;;;;;;;;2.25;2.00;;;;;10.15;60.36;99927.09;2100247;28;46769;-63
2023/04/13 04:36:51;;;;;;;;;1.50;0.25;;;;;10.13;60.46;99927.16;2096685;28;46745;-62
2023/04/13 04:37:53;;;;;;;;;5.00;3.33;;;;;10.14;60.72;99933.31;2096184;28;47478;-61
2023/04/13 04:38:56;;;;;;;;;6.75;3.00;;;;;10.15;60.53;99935.06;2094574;28;45916;-62
2023/04/13 04:39:58;;;;;;;;;3.00;3.00;;;;;10.15;60.64;99938.56;2092801;28;46554;-63
2023/04/13 04:41:00;;;;;;;;;0.00;0.00;;;;;10.18;60.49;99942.94;2070385;28;46739;-61
2023/04/13 04:42:04;;;;;;;;;1.25;1.25;;;;;10.17;60.32;99944.72;2071532;28;46674;-61
2023/04/13 04:43:04;;;;;;;;;1.25;1.25;;;;;10.15;60.54;99945.66;2091346;28;45310;-62
2023/04/13 04:44:07;;;;;;;;;3.00;2.67;;;;;10.16;60.42;99950.03;2097072;28;46503;-63
2023/04/13 04:45:09;;;;;;;;;2.50;2.00;;;;;10.14;60.34;99944.81;2096764;28;46720;-62
2023/04/13 04:46:10;;;;;;;;;3.00;1.50;;;;;10.14;60.26;99947.44;2096407;28;46156;-62
2023/04/13 04:47:12;;;;;;;;;5.00;3.00;;;;;10.14;60.53;99943.94;2096886;28;46483;-62
2023/04/13 04:48:12;;;;;;;;;4.50;2.25;;;;;10.13;60.41;99948.38;2096700;28;46431;-62
2023/04/13 04:49:12;;;;;;;;;4.00;3.00;;;;;10.15;60.35;99943.88;2096406;28;45661;-62
2023/04/13 04:50:13;;;;;;;;;6.00;2.00;;;;;10.16;60.49;99950.91;2096821;28;46783;-61
2023/04/13 04:51:13;;;;;;;;;3.00;3.00;;;;;10.17;60.38;99952.69;2097208;28;46101;-62
2023/04/13 04:52:13;;;;;;;;;4.33;4.33;;;;;10.16;60.40;99956.22;2088213;28;45704;-63